sensor_id;sensor_type;location;lat;lon;timestamp;pressure;altitude;pressure_sealevel;temperature;humidity
67738;BME280;54534;43.612;1.572;2023-02-12T00:01:36;100672.94;;;17.74;40.36
67738;BME280;54534;43.612;1.572;2023-02-12T00:04:01;100678.25;;;17.74;40.32
67738;BME280;54534;43.612;1.572;2023-02-12T00:06:26;100674.84;;;17.72;40.22
67738;BME280;54534;43.612;1.572;2023-02-12T00:08:53;100674.84;;;17.72;40.21
67738;BME280;54534;43.612;1.572;2023-02-12T00:11:24;100671.41;;;17.70;40.12
67738;BME280;54534;43.612;1.572;2023-02-12T00:13:51;100666.09;;;17.70;39.82
67738;BME280;54534;43.612;1.572;2023-02-12T00:16:19;100670.63;;;17.67;39.62
67738;BME280;54534;43.612;1.572;2023-02-12T00:18:46;100677.75;;;17.67;39.80
67738;BME280;54534;43.612;1.572;2023-02-12T00:21:11;100671.66;;;17.65;39.59
67738;BME280;54534;43.612;1.572;2023-02-12T00:23:39;100668.13;;;17.64;39.49
67738;BME280;54534;43.612;1.572;2023-02-12T00:26:11;100666.41;;;17.63;39.87
67738;BME280;54534;43.612;1.572;2023-02-12T00:28:36;100669.16;;;17.62;39.77
67738;BME280;54534;43.612;1.572;2023-02-12T00:31:14;100655.91;;;17.60;39.39
67738;BME280;54534;43.612;1.572;2023-02-12T00:33:40;100659.53;;;17.59;39.40
67738;BME280;54534;43.612;1.572;2023-02-12T00:36:07;100659.59;;;17.58;39.71
67738;BME280;54534;43.612;1.572;2023-02-12T00:38:33;100650.75;;;17.57;39.39
67738;BME280;54534;43.612;1.572;2023-02-12T00:40:59;100652.63;;;17.55;39.32
67738;BME280;54534;43.612;1.572;2023-02-12T00:43:24;100656.25;;;17.54;39.49
67738;BME280;54534;43.612;1.572;2023-02-12T00:45:50;100654.53;;;17.53;39.35
67738;BME280;54534;43.612;1.572;2023-02-12T00:48:15;100655.47;;;17.52;39.56
67738;BME280;54534;43.612;1.572;2023-02-12T00:50:44;100650.22;;;17.50;39.35
67738;BME280;54534;43.612;1.572;2023-02-12T00:53:09;100654.69;;;17.50;39.23
67738;BME280;54534;43.612;1.572;2023-02-12T00:55:35;100648.50;;;17.49;39.45
67738;BME280;54534;43.612;1.572;2023-02-12T00:58:00;100652.13;;;17.48;39.26
67738;BME280;54534;43.612;1.572;2023-02-12T01:00:26;100646.84;;;17.47;39.30
67738;BME280;54534;43.612;1.572;2023-02-12T01:02:51;100646.94;;;17.45;39.05
67738;BME280;54534;43.612;1.572;2023-02-12T01:05:17;100643.44;;;17.44;39.28
67738;BME280;54534;43.612;1.572;2023-02-12T01:07:48;100644.38;;;17.43;39.34
67738;BME280;54534;43.612;1.572;2023-02-12T01:10:14;100641.78;;;17.42;39.20
67738;BME280;54534;43.612;1.572;2023-02-12T01:12:40;100640.09;;;17.41;39.29
67738;BME280;54534;43.612;1.572;2023-02-12T01:15:05;100641.94;;;17.39;38.91
67738;BME280;54534;43.612;1.572;2023-02-12T01:17:31;100645.47;;;17.39;39.28
67738;BME280;54534;43.612;1.572;2023-02-12T01:19:57;100644.69;;;17.37;38.82
67738;BME280;54534;43.612;1.572;2023-02-12T01:22:23;100643.84;;;17.37;39.30
67738;BME280;54534;43.612;1.572;2023-02-12T01:24:48;100639.47;;;17.36;39.24
67738;BME280;54534;43.612;1.572;2023-02-12T01:27:15;100643.94;;;17.35;39.03
67738;BME280;54534;43.612;1.572;2023-02-12T01:29:40;100637.84;;;17.33;39.19
67738;BME280;54534;43.612;1.572;2023-02-12T01:32:09;100645.81;;;17.33;39.42
67738;BME280;54534;43.612;1.572;2023-02-12T01:34:35;100650.31;;;17.31;39.01
67738;BME280;54534;43.612;1.572;2023-02-12T01:37:01;100648.53;;;17.31;39.28
67738;BME280;54534;43.612;1.572;2023-02-12T01:39:26;100655.72;;;17.29;39.17
67738;BME280;54534;43.612;1.572;2023-02-12T01:41:53;100648.69;;;17.28;39.21
67738;BME280;54534;43.612;1.572;2023-02-12T01:44:22;100646.03;;;17.28;39.07
67738;BME280;54534;43.612;1.572;2023-02-12T01:46:56;100639.94;;;17.26;39.16
67738;BME280;54534;43.612;1.572;2023-02-12T01:49:31;100647.03;;;17.26;39.21
67738;BME280;54534;43.612;1.572;2023-02-12T01:52:04;100645.34;;;17.25;39.38
67738;BME280;54534;43.612;1.572;2023-02-12T01:54:33;100641.88;;;17.22;39.04
67738;BME280;54534;43.612;1.572;2023-02-12T01:57:01;100646.38;;;17.22;39.16
67738;BME280;54534;43.612;1.572;2023-02-12T01:59:27;100641.97;;;17.21;38.91
67738;BME280;54534;43.612;1.572;2023-02-12T02:01:54;100639.31;;;17.21;39.40
67738;BME280;54534;43.612;1.572;2023-02-12T02:04:22;100645.56;;;17.20;39.30
67738;BME280;54534;43.612;1.572;2023-02-12T02:06:56;100635.00;;;17.18;39.09
67738;BME280;54534;43.612;1.572;2023-02-12T02:09:21;100641.25;;;17.17;38.96
67738;BME280;54534;43.612;1.572;2023-02-12T02:11:47;100638.59;;;17.17;39.31
67738;BME280;54534;43.612;1.572;2023-02-12T02:14:31;100639.56;;;17.16;39.16
67738;BME280;54534;43.612;1.572;2023-02-12T02:17:12;100635.13;;;17.15;39.35
67738;BME280;54534;43.612;1.572;2023-02-12T02:28:57;100620.34;;;17.09;39.13
67738;BME280;54534;43.612;1.572;2023-02-12T02:34:00;100618.72;;;17.07;39.08
67738;BME280;54534;43.612;1.572;2023-02-12T02:39:40;100606.44;;;17.04;39.28
67738;BME280;54534;43.612;1.572;2023-02-12T02:42:34;100610.06;;;17.03;39.29
67738;BME280;54534;43.612;1.572;2023-02-12T02:45:10;100601.22;;;17.03;39.14
67738;BME280;54534;43.612;1.572;2023-02-12T02:47:43;100602.16;;;17.01;38.93
67738;BME280;54534;43.612;1.572;2023-02-12T02:50:13;100587.16;;;17.00;38.90
67738;BME280;54534;43.612;1.572;2023-02-12T02:53:00;100597.81;;;17.00;39.03
67738;BME280;54534;43.612;1.572;2023-02-12T02:55:31;100590.75;;;16.99;39.09
67738;BME280;54534;43.612;1.572;2023-02-12T02:58:10;100589.06;;;16.98;39.13
67738;BME280;54534;43.612;1.572;2023-02-12T03:00:40;100587.31;;;16.97;39.15
67738;BME280;54534;43.612;1.572;2023-02-12T03:03:22;100592.72;;;16.96;39.21
67738;BME280;54534;43.612;1.572;2023-02-12T03:05:52;100598.97;;;16.95;39.18
67738;BME280;54534;43.612;1.572;2023-02-12T03:08:23;100599.84;;;16.95;39.00
67738;BME280;54534;43.612;1.572;2023-02-12T03:11:02;100584.81;;;16.94;39.11
67738;BME280;54534;43.612;1.572;2023-02-12T03:13:39;100598.19;;;16.93;39.11
67738;BME280;54534;43.612;1.572;2023-02-12T03:16:20;100589.34;;;16.92;39.17
67738;BME280;54534;43.612;1.572;2023-02-12T03:18:57;100591.16;;;16.92;39.20
67738;BME280;54534;43.612;1.572;2023-02-12T03:27:04;100586.94;;;16.87;38.99
67738;BME280;54534;43.612;1.572;2023-02-12T03:29:31;100599.34;;;16.87;39.12
67738;BME280;54534;43.612;1.572;2023-02-12T03:37:28;100593.28;;;16.85;38.79
67738;BME280;54534;43.612;1.572;2023-02-12T03:40:00;100588.03;;;16.83;38.99
67738;BME280;54534;43.612;1.572;2023-02-12T03:42:40;100596.84;;;16.84;39.14
67738;BME280;54534;43.612;1.572;2023-02-12T03:45:21;100596.94;;;16.82;39.21
67738;BME280;54534;43.612;1.572;2023-02-12T03:48:40;100588.97;;;16.82;38.84
67738;BME280;54534;43.612;1.572;2023-02-12T03:53:33;100580.28;;;16.78;38.89
67738;BME280;54534;43.612;1.572;2023-02-12T03:56:03;100582.03;;;16.79;38.87
67738;BME280;54534;43.612;1.572;2023-02-12T03:58:34;100569.66;;;16.78;39.00
67738;BME280;54534;43.612;1.572;2023-02-12T04:01:02;100578.56;;;16.77;38.94
67738;BME280;54534;43.612;1.572;2023-02-12T04:03:28;100582.16;;;16.76;39.13
67738;BME280;54534;43.612;1.572;2023-02-12T04:05:54;100568.03;;;16.76;38.67
67738;BME280;54534;43.612;1.572;2023-02-12T04:08:19;100576.84;;;16.76;38.90
67738;BME280;54534;43.612;1.572;2023-02-12T04:10:54;100571.59;;;16.75;38.82
67738;BME280;54534;43.612;1.572;2023-02-12T04:13:34;100573.44;;;16.74;39.11
67738;BME280;54534;43.612;1.572;2023-02-12T04:16:18;100575.22;;;16.74;38.97
67738;BME280;54534;43.612;1.572;2023-02-12T04:18:47;100582.31;;;16.73;38.93
67738;BME280;54534;43.612;1.572;2023-02-12T04:24:18;100589.50;;;16.71;39.10
67738;BME280;54534;43.612;1.572;2023-02-12T04:27:04;100583.47;;;16.67;39.05
67738;BME280;54534;43.612;1.572;2023-02-12T04:35:07;100602.16;;;16.66;39.03
67738;BME280;54534;43.612;1.572;2023-02-12T04:37:40;100599.50;;;16.66;39.02
67738;BME280;54534;43.612;1.572;2023-02-12T04:40:11;100597.72;;;16.66;39.28
67738;BME280;54534;43.612;1.572;2023-02-12T04:42:43;100600.44;;;16.65;39.08
67738;BME280;54534;43.612;1.572;2023-02-12T04:45:17;100600.44;;;16.65;38.99
67738;BME280;54534;43.612;1.572;2023-02-12T04:47:45;100596.06;;;16.64;39.04
67738;BME280;54534;43.612;1.572;2023-02-12T04:50:10;100598.78;;;16.62;39.19
67738;BME280;54534;43.612;1.572;2023-02-12T04:52:36;100604.03;;;16.64;39.10
67738;BME280;54534;43.612;1.572;2023-02-12T04:55:02;100596.13;;;16.62;39.07
67738;BME280;54534;43.612;1.572;2023-02-12T04:57:27;100597.00;;;16.63;39.03
67738;BME280;54534;43.612;1.572;2023-02-12T04:59:52;100597.09;;;16.61;38.75
67738;BME280;54534;43.612;1.572;2023-02-12T05:02:18;100602.31;;;16.63;38.89
67738;BME280;54534;43.612;1.572;2023-02-12T05:04:43;100604.19;;;16.61;38.89
67738;BME280;54534;43.612;1.572;2023-02-12T05:07:10;100598.88;;;16.61;39.13
67738;BME280;54534;43.612;1.572;2023-02-12T05:09:36;100609.41;;;16.62;38.96
67738;BME280;54534;43.612;1.572;2023-02-12T05:12:01;100605.06;;;16.61;39.04
67738;BME280;54534;43.612;1.572;2023-02-12T05:14:27;100601.44;;;16.62;38.85
67738;BME280;54534;43.612;1.572;2023-02-12T05:16:52;100598.72;;;16.64;38.73
67738;BME280;54534;43.612;1.572;2023-02-12T05:19:18;100606.59;;;16.65;38.95
67738;BME280;54534;43.612;1.572;2023-02-12T05:21:43;100605.69;;;16.66;39.05
67738;BME280;54534;43.612;1.572;2023-02-12T05:24:08;100608.25;;;16.68;38.80
67738;BME280;54534;43.612;1.572;2023-02-12T05:26:34;100607.31;;;16.69;39.00
67738;BME280;54534;43.612;1.572;2023-02-12T05:29:00;100609.03;;;16.70;38.85
67738;BME280;54534;43.612;1.572;2023-02-12T05:31:26;100601.00;;;16.72;39.06
67738;BME280;54534;43.612;1.572;2023-02-12T05:33:51;100607.97;;;16.74;38.79
67738;BME280;54534;43.612;1.572;2023-02-12T05:36:19;100600.81;;;16.75;38.90
67738;BME280;54534;43.612;1.572;2023-02-12T05:38:45;100609.59;;;16.77;38.84
67738;BME280;54534;43.612;1.572;2023-02-12T05:41:16;100605.94;;;16.79;38.87
67738;BME280;54534;43.612;1.572;2023-02-12T05:43:42;100612.00;;;16.82;38.85
67738;BME280;54534;43.612;1.572;2023-02-12T05:46:09;100604.03;;;16.82;39.09
67738;BME280;54534;43.612;1.572;2023-02-12T05:48:35;100605.69;;;16.84;38.76
67738;BME280;54534;43.612;1.572;2023-02-12T05:51:13;100609.13;;;16.86;38.72
67738;BME280;54534;43.612;1.572;2023-02-12T05:53:40;100608.19;;;16.87;38.79
67738;BME280;54534;43.612;1.572;2023-02-12T05:56:15;100608.09;;;16.89;38.62
67738;BME280;54534;43.612;1.572;2023-02-12T05:58:42;100616.84;;;16.91;38.57
67738;BME280;54534;43.612;1.572;2023-02-12T06:01:14;100615.94;;;16.92;38.78
67738;BME280;54534;43.612;1.572;2023-02-12T06:03:40;100612.41;;;16.92;38.76
67738;BME280;54534;43.612;1.572;2023-02-12T06:06:06;100617.66;;;16.93;38.61
67738;BME280;54534;43.612;1.572;2023-02-12T06:08:32;100612.25;;;16.95;38.87
67738;BME280;54534;43.612;1.572;2023-02-12T06:11:02;100616.63;;;16.96;38.80
67738;BME280;54534;43.612;1.572;2023-02-12T06:13:29;100613.97;;;16.96;38.48
67738;BME280;54534;43.612;1.572;2023-02-12T06:15:55;100615.69;;;16.97;38.76
67738;BME280;54534;43.612;1.572;2023-02-12T06:18:21;100620.94;;;16.98;38.76
67738;BME280;54534;43.612;1.572;2023-02-12T06:20:47;100617.31;;;16.99;38.52
67738;BME280;54534;43.612;1.572;2023-02-12T06:23:12;100627.03;;;17.00;38.49
67738;BME280;54534;43.612;1.572;2023-02-12T06:25:38;100623.41;;;17.01;38.81
67738;BME280;54534;43.612;1.572;2023-02-12T06:28:03;100626.06;;;17.01;38.52
67738;BME280;54534;43.612;1.572;2023-02-12T06:30:29;100623.41;;;17.01;38.45
67738;BME280;54534;43.612;1.572;2023-02-12T06:32:56;100614.50;;;17.03;38.65
67738;BME280;54534;43.612;1.572;2023-02-12T06:35:21;100627.72;;;17.04;38.47
67738;BME280;54534;43.612;1.572;2023-02-12T06:37:47;100628.56;;;17.05;38.60
67738;BME280;54534;43.612;1.572;2023-02-12T06:40:12;100634.75;;;17.05;38.59
67738;BME280;54534;43.612;1.572;2023-02-12T06:42:38;100618.81;;;17.05;38.45
67738;BME280;54534;43.612;1.572;2023-02-12T06:45:03;100624.13;;;17.05;38.43
67738;BME280;54534;43.612;1.572;2023-02-12T06:47:29;100625.84;;;17.06;38.50
67738;BME280;54534;43.612;1.572;2023-02-12T06:49:54;100625.00;;;17.06;38.29
67738;BME280;54534;43.612;1.572;2023-02-12T06:52:20;100625.84;;;17.06;38.19
67738;BME280;54534;43.612;1.572;2023-02-12T06:54:46;100624.91;;;17.07;38.23
67738;BME280;54534;43.612;1.572;2023-02-12T06:57:12;100627.56;;;17.07;38.33
67738;BME280;54534;43.612;1.572;2023-02-12T06:59:37;100629.28;;;17.08;38.48
67738;BME280;54534;43.612;1.572;2023-02-12T07:02:03;100631.09;;;17.08;38.11
67738;BME280;54534;43.612;1.572;2023-02-12T07:04:28;100621.31;;;17.08;38.49
67738;BME280;54534;43.612;1.572;2023-02-12T07:06:54;100623.97;;;17.08;38.59
67738;BME280;54534;43.612;1.572;2023-02-12T07:09:19;100630.16;;;17.09;38.54
67738;BME280;54534;43.612;1.572;2023-02-12T07:11:45;100635.38;;;17.10;37.98
67738;BME280;54534;43.612;1.572;2023-02-12T07:14:14;100641.56;;;17.11;37.95
67738;BME280;54534;43.612;1.572;2023-02-12T07:16:40;100650.47;;;17.10;38.29
67738;BME280;54534;43.612;1.572;2023-02-12T07:19:05;100651.22;;;17.12;38.11
67738;BME280;54534;43.612;1.572;2023-02-12T07:21:31;100653.06;;;17.11;38.03
67738;BME280;54534;43.612;1.572;2023-02-12T07:23:57;100652.97;;;17.13;38.59
67738;BME280;54534;43.612;1.572;2023-02-12T07:26:22;100655.63;;;17.13;38.45
67738;BME280;54534;43.612;1.572;2023-02-12T07:28:50;100661.72;;;17.15;38.45
67738;BME280;54534;43.612;1.572;2023-02-12T07:31:21;100654.59;;;17.16;38.44
67738;BME280;54534;43.612;1.572;2023-02-12T07:33:47;100662.53;;;17.17;38.66
67738;BME280;54534;43.612;1.572;2023-02-12T07:36:17;100665.13;;;17.19;38.61
67738;BME280;54534;43.612;1.572;2023-02-12T07:38:43;100658.00;;;17.19;38.57
67738;BME280;54534;43.612;1.572;2023-02-12T07:41:09;100663.31;;;17.19;38.88
67738;BME280;54534;43.612;1.572;2023-02-12T07:43:37;100659.72;;;17.20;38.92
67738;BME280;54534;43.612;1.572;2023-02-12T07:46:07;100652.59;;;17.21;38.64
67738;BME280;54534;43.612;1.572;2023-02-12T07:48:32;100649.84;;;17.22;38.85
67738;BME280;54534;43.612;1.572;2023-02-12T07:51:02;100647.19;;;17.22;39.03
67738;BME280;54534;43.612;1.572;2023-02-12T07:53:28;100642.75;;;17.23;39.08
67738;BME280;54534;43.612;1.572;2023-02-12T07:55:53;100649.78;;;17.24;38.63
67738;BME280;54534;43.612;1.572;2023-02-12T07:58:19;100655.97;;;17.25;38.97
67738;BME280;54534;43.612;1.572;2023-02-12T08:00:44;100653.22;;;17.26;38.84
67738;BME280;54534;43.612;1.572;2023-02-12T08:03:09;100655.88;;;17.26;38.92
67738;BME280;54534;43.612;1.572;2023-02-12T08:05:35;100662.94;;;17.27;38.78
67738;BME280;54534;43.612;1.572;2023-02-12T08:08:00;100660.28;;;17.27;38.79
67738;BME280;54534;43.612;1.572;2023-02-12T08:10:26;100667.38;;;17.27;38.79
67738;BME280;54534;43.612;1.572;2023-02-12T08:12:51;100672.59;;;17.28;39.07
67738;BME280;54534;43.612;1.572;2023-02-12T08:15:16;100674.44;;;17.28;39.00
67738;BME280;54534;43.612;1.572;2023-02-12T08:17:42;100671.78;;;17.28;38.71
67738;BME280;54534;43.612;1.572;2023-02-12T08:20:08;100671.78;;;17.28;38.70
67738;BME280;54534;43.612;1.572;2023-02-12T08:22:33;100682.41;;;17.28;38.85
67738;BME280;54534;43.612;1.572;2023-02-12T08:24:58;100680.69;;;17.27;38.63
67738;BME280;54534;43.612;1.572;2023-02-12T08:27:24;100686.84;;;17.27;38.62
67738;BME280;54534;43.612;1.572;2023-02-12T08:29:49;100686.00;;;17.27;38.96
67738;BME280;54534;43.612;1.572;2023-02-12T08:32:15;100690.38;;;17.28;38.82
67738;BME280;54534;43.612;1.572;2023-02-12T08:34:41;100695.69;;;17.28;38.68
67738;BME280;54534;43.612;1.572;2023-02-12T08:37:06;100686.84;;;17.27;38.81
67738;BME280;54534;43.612;1.572;2023-02-12T08:39:32;100695.69;;;17.28;38.61
67738;BME280;54534;43.612;1.572;2023-02-12T08:41:58;100693.88;;;17.28;38.52
67738;BME280;54534;43.612;1.572;2023-02-12T08:44:25;100685.91;;;17.28;38.51
67738;BME280;54534;43.612;1.572;2023-02-12T08:46:51;100688.56;;;17.28;38.48
67738;BME280;54534;43.612;1.572;2023-02-12T08:49:21;100693.88;;;17.28;38.50
67738;BME280;54534;43.612;1.572;2023-02-12T08:51:50;100688.50;;;17.30;38.52
67738;BME280;54534;43.612;1.572;2023-02-12T08:54:21;100700.00;;;17.30;38.75
67738;BME280;54534;43.612;1.572;2023-02-12T08:56:46;100695.59;;;17.29;38.77
67738;BME280;54534;43.612;1.572;2023-02-12T08:59:13;100688.50;;;17.30;38.51
67738;BME280;54534;43.612;1.572;2023-02-12T09:01:39;100696.47;;;17.30;38.29
67738;BME280;54534;43.612;1.572;2023-02-12T09:04:06;100692.09;;;17.29;38.30
67738;BME280;54534;43.612;1.572;2023-02-12T09:06:33;100697.34;;;17.30;38.43
67738;BME280;54534;43.612;1.572;2023-02-12T09:08:59;100702.66;;;17.30;38.41
67738;BME280;54534;43.612;1.572;2023-02-12T09:11:26;100693.81;;;17.30;38.40
67738;BME280;54534;43.612;1.572;2023-02-12T09:13:55;100689.44;;;17.29;38.57
67738;BME280;54534;43.612;1.572;2023-02-12T09:16:21;100694.69;;;17.30;38.56
67738;BME280;54534;43.612;1.572;2023-02-12T09:18:46;100696.47;;;17.30;38.54
67738;BME280;54534;43.612;1.572;2023-02-12T09:21:14;100699.03;;;17.31;38.54
67738;BME280;54534;43.612;1.572;2023-02-12T09:23:42;100699.03;;;17.31;38.37
67738;BME280;54534;43.612;1.572;2023-02-12T09:26:10;100702.56;;;17.32;38.36
67738;BME280;54534;43.612;1.572;2023-02-12T09:28:36;100695.47;;;17.32;38.27
67738;BME280;54534;43.612;1.572;2023-02-12T09:31:06;100684.81;;;17.32;38.19
67738;BME280;54534;43.612;1.572;2023-02-12T09:33:32;100686.72;;;17.30;38.61
67738;BME280;54534;43.612;1.572;2023-02-12T09:36:02;100686.63;;;17.32;38.57
67738;BME280;54534;43.612;1.572;2023-02-12T09:38:28;100684.81;;;17.32;38.57
67738;BME280;54534;43.612;1.572;2023-02-12T09:43:34;100697.09;;;17.35;38.34
67738;BME280;54534;43.612;1.572;2023-02-12T09:46:18;100689.13;;;17.35;38.48
67738;BME280;54534;43.612;1.572;2023-02-12T09:51:30;100689.13;;;17.35;38.07
67738;BME280;54534;43.612;1.572;2023-02-12T09:54:03;100682.84;;;17.36;38.24
67738;BME280;54534;43.612;1.572;2023-02-12T09:56:30;100684.66;;;17.36;38.39
67738;BME280;54534;43.612;1.572;2023-02-12T09:58:59;100688.16;;;17.36;38.48
67738;BME280;54534;43.612;1.572;2023-02-12T10:01:27;100684.56;;;17.37;38.50
67738;BME280;54534;43.612;1.572;2023-02-12T10:03:53;100676.59;;;17.37;38.19
67738;BME280;54534;43.612;1.572;2023-02-12T10:06:21;100671.28;;;17.37;38.11
67738;BME280;54534;43.612;1.572;2023-02-12T10:09:14;100675.75;;;17.37;38.19
67738;BME280;54534;43.612;1.572;2023-02-12T10:25:53;100689.03;;;17.37;38.19
67738;BME280;54534;43.612;1.572;2023-02-12T10:28:35;100689.81;;;17.39;38.12
67738;BME280;54534;43.612;1.572;2023-02-12T10:31:24;100690.66;;;17.39;38.17
67738;BME280;54534;43.612;1.572;2023-02-12T10:33:53;100689.81;;;17.39;38.35
67738;BME280;54534;43.612;1.572;2023-02-12T10:36:32;100687.09;;;17.40;38.09
67738;BME280;54534;43.612;1.572;2023-02-12T10:39:06;100684.44;;;17.40;38.18
67738;BME280;54534;43.612;1.572;2023-02-12T10:41:42;100678.16;;;17.41;38.03
67738;BME280;54534;43.612;1.572;2023-02-12T10:44:12;100677.22;;;17.42;38.09
67738;BME280;54534;43.612;1.572;2023-02-12T10:46:37;100673.69;;;17.42;37.91
67738;BME280;54534;43.612;1.572;2023-02-12T10:49:04;100671.03;;;17.42;38.14
67738;BME280;54534;43.612;1.572;2023-02-12T10:54:43;100670.13;;;17.43;38.54
67738;BME280;54534;43.612;1.572;2023-02-12T10:59:47;100665.66;;;17.43;38.31
67738;BME280;54534;43.612;1.572;2023-02-12T11:02:31;100668.22;;;17.45;37.92
67738;BME280;54534;43.612;1.572;2023-02-12T11:04:58;100662.91;;;17.45;38.26
67738;BME280;54534;43.612;1.572;2023-02-12T11:07:25;100657.50;;;17.47;38.03
67738;BME280;54534;43.612;1.572;2023-02-12T11:09:53;100656.56;;;17.48;38.27
67738;BME280;54534;43.612;1.572;2023-02-12T11:12:31;100654.78;;;17.48;38.33
67738;BME280;54534;43.612;1.572;2023-02-12T11:15:20;100648.50;;;17.49;38.02
67738;BME280;54534;43.612;1.572;2023-02-12T11:17:57;100651.09;;;17.51;38.37
67738;BME280;54534;43.612;1.572;2023-02-12T11:20:29;100649.31;;;17.51;38.35
67738;BME280;54534;43.612;1.572;2023-02-12T11:23:01;100636.84;;;17.52;38.35
67738;BME280;54534;43.612;1.572;2023-02-12T11:25:32;100636.78;;;17.53;38.30
67738;BME280;54534;43.612;1.572;2023-02-12T11:28:13;100634.97;;;17.54;38.44
67738;BME280;54534;43.612;1.572;2023-02-12T11:30:55;100640.22;;;17.55;38.23
67738;BME280;54534;43.612;1.572;2023-02-12T11:33:31;100639.34;;;17.55;38.14
67738;BME280;54534;43.612;1.572;2023-02-12T11:36:13;100635.66;;;17.58;38.29
67738;BME280;54534;43.612;1.572;2023-02-12T11:38:56;100627.78;;;17.56;38.25
67738;BME280;54534;43.612;1.572;2023-02-12T11:41:35;100625.03;;;17.58;38.14
67738;BME280;54534;43.612;1.572;2023-02-12T11:44:12;100624.09;;;17.59;38.36
67738;BME280;54534;43.612;1.572;2023-02-12T11:46:46;100624.97;;;17.59;38.46
67738;BME280;54534;43.612;1.572;2023-02-12T11:49:19;100630.28;;;17.59;38.40
67738;BME280;54534;43.612;1.572;2023-02-12T11:51:46;100627.63;;;17.59;38.25
67738;BME280;54534;43.612;1.572;2023-02-12T11:54:19;100618.69;;;17.60;38.23
67738;BME280;54534;43.612;1.572;2023-02-12T11:56:46;100613.34;;;17.60;38.19
67738;BME280;54534;43.612;1.572;2023-02-12T11:59:37;100615.09;;;17.61;38.26
67738;BME280;54534;43.612;1.572;2023-02-12T12:04:37;100600.06;;;17.60;38.18
67738;BME280;54534;43.612;1.572;2023-02-12T12:07:13;100599.13;;;17.61;38.47
67738;BME280;54534;43.612;1.572;2023-02-12T12:09:48;100605.31;;;17.62;38.24
67738;BME280;54534;43.612;1.572;2023-02-12T12:12:22;100596.47;;;17.61;38.56
67738;BME280;54534;43.612;1.572;2023-02-12T12:14:53;100593.81;;;17.61;38.66
67738;BME280;54534;43.612;1.572;2023-02-12T12:17:53;100584.19;;;17.59;38.36
67738;BME280;54534;43.612;1.572;2023-02-12T12:20:52;100581.44;;;17.60;38.58
67738;BME280;54534;43.612;1.572;2023-02-12T12:23:34;100581.44;;;17.60;38.35
67738;BME280;54534;43.612;1.572;2023-02-12T12:26:24;100582.31;;;17.61;38.42
67738;BME280;54534;43.612;1.572;2023-02-12T12:29:02;100574.34;;;17.61;38.52
67738;BME280;54534;43.612;1.572;2023-02-12T12:40:35;100568.16;;;17.60;38.84
67738;BME280;54534;43.612;1.572;2023-02-12T12:43:07;100565.50;;;17.60;38.72
67738;BME280;54534;43.612;1.572;2023-02-12T12:56:34;100565.50;;;17.60;38.59
67738;BME280;54534;43.612;1.572;2023-02-12T12:59:21;100563.69;;;17.61;38.37
67738;BME280;54534;43.612;1.572;2023-02-12T13:10:48;100547.84;;;17.59;38.57
67738;BME280;54534;43.612;1.572;2023-02-12T13:13:36;100553.06;;;17.61;38.48
67738;BME280;54534;43.612;1.572;2023-02-12T13:19:00;100545.06;;;17.61;38.15
67738;BME280;54534;43.612;1.572;2023-02-12T13:21:55;100542.34;;;17.62;38.48
67738;BME280;54534;43.612;1.572;2023-02-12T13:24:28;100533.56;;;17.60;38.35
67738;BME280;54534;43.612;1.572;2023-02-12T13:27:06;100546.81;;;17.62;38.19
67738;BME280;54534;43.612;1.572;2023-02-12T13:29:40;100546.81;;;17.62;38.47
67738;BME280;54534;43.612;1.572;2023-02-12T13:32:15;100532.53;;;17.63;38.55
67738;BME280;54534;43.612;1.572;2023-02-12T13:34:44;100537.03;;;17.62;38.52
67738;BME280;54534;43.612;1.572;2023-02-12T13:37:19;100524.56;;;17.63;38.16
67738;BME280;54534;43.612;1.572;2023-02-12T13:39:49;100529.88;;;17.63;38.33
67738;BME280;54534;43.612;1.572;2023-02-12T13:44:57;100529.81;;;17.64;37.57
67738;BME280;54534;43.612;1.572;2023-02-12T13:50:36;100513.84;;;17.64;37.42
67738;BME280;54534;43.612;1.572;2023-02-12T14:02:03;100505.88;;;17.64;36.58
67738;BME280;54534;43.612;1.572;2023-02-12T14:07:10;100506.75;;;17.65;36.64
67738;BME280;54534;43.612;1.572;2023-02-12T14:09:45;100513.84;;;17.64;36.39
67738;BME280;54534;43.612;1.572;2023-02-12T14:12:35;100507.69;;;17.64;36.36
67738;BME280;54534;43.612;1.572;2023-02-12T14:15:42;100503.38;;;17.61;36.46
67738;BME280;54534;43.612;1.572;2023-02-12T14:18:31;100510.50;;;17.61;36.53
67738;BME280;54534;43.612;1.572;2023-02-12T14:26:59;100498.22;;;17.58;35.34
67738;BME280;54534;43.612;1.572;2023-02-12T14:29:25;100501.81;;;17.57;35.59
67738;BME280;54534;43.612;1.572;2023-02-12T14:31:51;100504.47;;;17.57;35.25
67738;BME280;54534;43.612;1.572;2023-02-12T14:36:46;100499.09;;;17.59;34.99
67738;BME280;54534;43.612;1.572;2023-02-12T14:41:48;100493.78;;;17.59;35.35
67738;BME280;54534;43.612;1.572;2023-02-12T14:49:38;100494.47;;;17.62;35.72
67738;BME280;54534;43.612;1.572;2023-02-12T14:54:58;100487.34;;;17.63;35.50
67738;BME280;54534;43.612;1.572;2023-02-12T14:59:56;100481.94;;;17.64;35.85
67738;BME280;54534;43.612;1.572;2023-02-12T15:02:24;100486.31;;;17.65;35.87
67738;BME280;54534;43.612;1.572;2023-02-12T15:04:53;100483.56;;;17.67;35.73
67738;BME280;54534;43.612;1.572;2023-02-12T15:07:59;100487.09;;;17.67;35.76
67738;BME280;54534;43.612;1.572;2023-02-12T15:10:45;100493.25;;;17.68;35.78
67738;BME280;54534;43.612;1.572;2023-02-12T15:13:17;100494.97;;;17.69;36.34
67738;BME280;54534;43.612;1.572;2023-02-12T15:15:51;100490.53;;;17.70;36.03
67738;BME280;54534;43.612;1.572;2023-02-12T15:18:42;100486.91;;;17.71;36.14
67738;BME280;54534;43.612;1.572;2023-02-12T15:21:22;100490.44;;;17.71;36.44
67738;BME280;54534;43.612;1.572;2023-02-12T15:26:36;100489.41;;;17.74;36.66